sensor_id;sensor_type;location;lat;lon;timestamp;P1;durP1;ratioP1;P2;durP2;ratioP2
773;SDS011;370;48.810;9.150;2023-08-06T00:01:06;5.18;;;3.17;;
773;SDS011;370;48.810;9.150;2023-08-06T00:03:33;6.47;;;3.10;;
773;SDS011;370;48.810;9.150;2023-08-06T00:05:59;4.57;;;3.00;;
773;SDS011;370;48.810;9.150;2023-08-06T00:08:26;4.80;;;2.95;;
773;SDS011;370;48.810;9.150;2023-08-06T00:10:53;3.83;;;2.63;;
773;SDS011;370;48.810;9.150;2023-08-06T00:13:21;6.15;;;3.60;;
773;SDS011;370;48.810;9.150;2023-08-06T00:15:47;4.50;;;3.00;;
773;SDS011;370;48.810;9.150;2023-08-06T00:18:14;4.38;;;2.33;;
773;SDS011;370;48.810;9.150;2023-08-06T00:20:41;5.40;;;3.22;;
773;SDS011;370;48.810;9.150;2023-08-06T00:23:08;4.35;;;2.63;;
773;SDS011;370;48.810;9.150;2023-08-06T00:25:34;4.70;;;2.88;;
773;SDS011;370;48.810;9.150;2023-08-06T00:28:01;4.85;;;2.20;;
773;SDS011;370;48.810;9.150;2023-08-06T00:30:29;2.80;;;2.10;;
773;SDS011;370;48.810;9.150;2023-08-06T00:32:57;1.65;;;1.63;;
773;SDS011;370;48.810;9.150;2023-08-06T00:35:23;4.32;;;2.22;;
773;SDS011;370;48.810;9.150;2023-08-06T00:37:50;2.63;;;1.95;;
773;SDS011;370;48.810;9.150;2023-08-06T00:40:19;4.03;;;2.40;;
773;SDS011;370;48.810;9.150;2023-08-06T00:42:47;3.13;;;2.10;;
773;SDS011;370;48.810;9.150;2023-08-06T00:45:14;15.57;;;1.88;;
773;SDS011;370;48.810;9.150;2023-08-06T00:47:42;2.90;;;1.90;;
773;SDS011;370;48.810;9.150;2023-08-06T00:50:09;3.40;;;2.00;;
773;SDS011;370;48.810;9.150;2023-08-06T00:52:36;2.88;;;2.00;;
773;SDS011;370;48.810;9.150;2023-08-06T00:55:03;2.45;;;1.75;;
773;SDS011;370;48.810;9.150;2023-08-06T00:57:30;2.35;;;1.60;;
773;SDS011;370;48.810;9.150;2023-08-06T00:59:57;1.77;;;1.48;;
773;SDS011;370;48.810;9.150;2023-08-06T01:02:24;3.55;;;2.30;;
773;SDS011;370;48.810;9.150;2023-08-06T01:04:52;5.68;;;2.05;;
773;SDS011;370;48.810;9.150;2023-08-06T01:07:21;2.08;;;1.88;;
773;SDS011;370;48.810;9.150;2023-08-06T01:10:02;2.55;;;1.60;;
773;SDS011;370;48.810;9.150;2023-08-06T01:12:41;3.15;;;1.67;;
773;SDS011;370;48.810;9.150;2023-08-06T01:15:15;2.95;;;1.45;;
773;SDS011;370;48.810;9.150;2023-08-06T01:17:46;6.93;;;2.10;;
773;SDS011;370;48.810;9.150;2023-08-06T01:20:15;1.73;;;1.65;;
773;SDS011;370;48.810;9.150;2023-08-06T01:22:43;4.13;;;2.20;;
773;SDS011;370;48.810;9.150;2023-08-06T01:25:10;3.63;;;1.92;;
773;SDS011;370;48.810;9.150;2023-08-06T01:27:44;4.25;;;2.00;;
773;SDS011;370;48.810;9.150;2023-08-06T01:30:15;3.15;;;2.05;;
773;SDS011;370;48.810;9.150;2023-08-06T01:32:44;4.32;;;2.45;;
773;SDS011;370;48.810;9.150;2023-08-06T01:35:15;3.58;;;2.05;;
773;SDS011;370;48.810;9.150;2023-08-06T01:37:44;2.65;;;1.80;;
773;SDS011;370;48.810;9.150;2023-08-06T01:40:12;2.38;;;1.85;;
773;SDS011;370;48.810;9.150;2023-08-06T01:42:40;3.05;;;1.70;;
773;SDS011;370;48.810;9.150;2023-08-06T01:45:07;3.53;;;2.08;;
773;SDS011;370;48.810;9.150;2023-08-06T01:47:35;2.58;;;1.65;;
773;SDS011;370;48.810;9.150;2023-08-06T01:50:02;3.10;;;1.85;;
773;SDS011;370;48.810;9.150;2023-08-06T01:52:29;2.70;;;1.70;;
773;SDS011;370;48.810;9.150;2023-08-06T01:54:57;9.68;;;1.65;;
773;SDS011;370;48.810;9.150;2023-08-06T01:57:24;5.00;;;1.67;;
773;SDS011;370;48.810;9.150;2023-08-06T01:59:50;4.47;;;1.65;;
773;SDS011;370;48.810;9.150;2023-08-06T02:02:17;2.42;;;1.80;;
773;SDS011;370;48.810;9.150;2023-08-06T02:04:44;2.63;;;1.88;;
773;SDS011;370;48.810;9.150;2023-08-06T02:07:11;3.15;;;2.17;;
773;SDS011;370;48.810;9.150;2023-08-06T02:09:38;2.53;;;2.03;;
773;SDS011;370;48.810;9.150;2023-08-06T02:12:07;1.77;;;1.73;;
773;SDS011;370;48.810;9.150;2023-08-06T02:14:34;1.55;;;1.40;;
773;SDS011;370;48.810;9.150;2023-08-06T02:17:00;1.52;;;1.42;;
773;SDS011;370;48.810;9.150;2023-08-06T02:19:27;2.25;;;1.45;;
773;SDS011;370;48.810;9.150;2023-08-06T02:21:54;5.80;;;2.45;;
773;SDS011;370;48.810;9.150;2023-08-06T02:24:21;2.85;;;1.83;;
773;SDS011;370;48.810;9.150;2023-08-06T02:26:47;7.15;;;1.80;;
773;SDS011;370;48.810;9.150;2023-08-06T02:29:17;1.80;;;1.30;;
773;SDS011;370;48.810;9.150;2023-08-06T02:31:44;2.50;;;1.50;;
773;SDS011;370;48.810;9.150;2023-08-06T02:34:11;2.20;;;1.40;;
773;SDS011;370;48.810;9.150;2023-08-06T02:36:37;2.35;;;1.55;;
773;SDS011;370;48.810;9.150;2023-08-06T02:39:04;3.67;;;1.90;;
773;SDS011;370;48.810;9.150;2023-08-06T02:41:31;2.47;;;1.35;;
773;SDS011;370;48.810;9.150;2023-08-06T02:43:58;2.47;;;1.60;;
773;SDS011;370;48.810;9.150;2023-08-06T02:46:26;4.00;;;1.90;;
773;SDS011;370;48.810;9.150;2023-08-06T02:48:52;2.35;;;1.90;;
773;SDS011;370;48.810;9.150;2023-08-06T02:51:19;2.10;;;1.60;;
773;SDS011;370;48.810;9.150;2023-08-06T02:53:47;1.15;;;1.08;;
773;SDS011;370;48.810;9.150;2023-08-06T02:56:14;3.75;;;2.08;;
773;SDS011;370;48.810;9.150;2023-08-06T02:58:41;2.45;;;1.42;;
773;SDS011;370;48.810;9.150;2023-08-06T03:01:07;2.13;;;1.50;;
773;SDS011;370;48.810;9.150;2023-08-06T03:03:35;4.30;;;1.70;;
773;SDS011;370;48.810;9.150;2023-08-06T03:06:02;2.20;;;1.75;;
773;SDS011;370;48.810;9.150;2023-08-06T03:08:29;2.63;;;1.33;;
773;SDS011;370;48.810;9.150;2023-08-06T03:10:56;3.83;;;1.25;;
773;SDS011;370;48.810;9.150;2023-08-06T03:13:23;3.35;;;1.58;;
773;SDS011;370;48.810;9.150;2023-08-06T03:15:52;3.78;;;2.22;;
773;SDS011;370;48.810;9.150;2023-08-06T03:18:19;6.65;;;2.05;;
773;SDS011;370;48.810;9.150;2023-08-06T03:20:48;7.03;;;1.90;;
773;SDS011;370;48.810;9.150;2023-08-06T03:23:15;3.17;;;1.70;;
773;SDS011;370;48.810;9.150;2023-08-06T03:25:42;3.67;;;2.08;;
773;SDS011;370;48.810;9.150;2023-08-06T03:28:08;2.75;;;1.75;;
773;SDS011;370;48.810;9.150;2023-08-06T03:30:35;4.68;;;2.10;;
773;SDS011;370;48.810;9.150;2023-08-06T03:33:02;4.65;;;1.52;;
773;SDS011;370;48.810;9.150;2023-08-06T03:35:29;4.20;;;1.92;;
773;SDS011;370;48.810;9.150;2023-08-06T03:37:57;5.05;;;1.95;;
773;SDS011;370;48.810;9.150;2023-08-06T03:40:24;3.08;;;1.38;;
773;SDS011;370;48.810;9.150;2023-08-06T03:42:50;2.85;;;1.60;;
773;SDS011;370;48.810;9.150;2023-08-06T03:45:17;2.25;;;1.15;;
773;SDS011;370;48.810;9.150;2023-08-06T03:47:44;2.53;;;1.50;;
773;SDS011;370;48.810;9.150;2023-08-06T03:50:11;4.80;;;1.60;;
773;SDS011;370;48.810;9.150;2023-08-06T03:52:37;2.03;;;1.70;;
773;SDS011;370;48.810;9.150;2023-08-06T03:55:06;3.28;;;1.20;;
773;SDS011;370;48.810;9.150;2023-08-06T03:57:33;3.25;;;2.10;;
773;SDS011;370;48.810;9.150;2023-08-06T03:59:59;3.83;;;2.17;;
773;SDS011;370;48.810;9.150;2023-08-06T04:02:26;7.47;;;1.65;;
773;SDS011;370;48.810;9.150;2023-08-06T04:04:53;4.03;;;2.17;;
773;SDS011;370;48.810;9.150;2023-08-06T04:07:19;4.85;;;1.67;;
773;SDS011;370;48.810;9.150;2023-08-06T04:09:53;2.42;;;1.50;;
773;SDS011;370;48.810;9.150;2023-08-06T04:12:22;3.17;;;2.20;;
773;SDS011;370;48.810;9.150;2023-08-06T04:14:49;2.60;;;1.95;;
773;SDS011;370;48.810;9.150;2023-08-06T04:17:17;3.90;;;2.30;;
773;SDS011;370;48.810;9.150;2023-08-06T04:19:45;3.25;;;1.95;;
773;SDS011;370;48.810;9.150;2023-08-06T04:22:12;2.58;;;2.00;;
773;SDS011;370;48.810;9.150;2023-08-06T04:24:39;8.50;;;1.77;;
773;SDS011;370;48.810;9.150;2023-08-06T04:27:07;4.13;;;2.20;;
773;SDS011;370;48.810;9.150;2023-08-06T04:29:35;3.63;;;1.65;;
773;SDS011;370;48.810;9.150;2023-08-06T04:32:03;2.13;;;1.50;;
773;SDS011;370;48.810;9.150;2023-08-06T04:34:32;2.58;;;1.65;;
773;SDS011;370;48.810;9.150;2023-08-06T04:36:59;4.05;;;1.40;;
773;SDS011;370;48.810;9.150;2023-08-06T04:39:26;3.00;;;1.95;;
773;SDS011;370;48.810;9.150;2023-08-06T04:41:53;4.63;;;1.20;;
773;SDS011;370;48.810;9.150;2023-08-06T04:44:20;3.05;;;1.60;;
773;SDS011;370;48.810;9.150;2023-08-06T04:46:48;1.50;;;1.25;;
773;SDS011;370;48.810;9.150;2023-08-06T04:49:15;2.13;;;1.90;;
773;SDS011;370;48.810;9.150;2023-08-06T04:51:42;2.08;;;1.52;;
773;SDS011;370;48.810;9.150;2023-08-06T04:54:09;1.90;;;1.42;;
773;SDS011;370;48.810;9.150;2023-08-06T04:56:36;2.53;;;1.35;;
773;SDS011;370;48.810;9.150;2023-08-06T04:59:02;2.08;;;1.38;;
773;SDS011;370;48.810;9.150;2023-08-06T05:01:29;3.67;;;1.40;;
773;SDS011;370;48.810;9.150;2023-08-06T05:03:57;2.70;;;1.27;;
773;SDS011;370;48.810;9.150;2023-08-06T05:06:24;2.65;;;1.30;;
773;SDS011;370;48.810;9.150;2023-08-06T05:08:51;2.38;;;1.17;;
773;SDS011;370;48.810;9.150;2023-08-06T05:11:17;2.13;;;1.83;;
773;SDS011;370;48.810;9.150;2023-08-06T05:13:44;1.92;;;1.17;;
773;SDS011;370;48.810;9.150;2023-08-06T05:16:11;1.00;;;1.00;;
773;SDS011;370;48.810;9.150;2023-08-06T05:18:38;2.25;;;0.95;;
773;SDS011;370;48.810;9.150;2023-08-06T05:21:06;1.60;;;0.95;;
773;SDS011;370;48.810;9.150;2023-08-06T05:23:32;1.90;;;1.20;;
773;SDS011;370;48.810;9.150;2023-08-06T05:25:59;1.40;;;1.17;;
773;SDS011;370;48.810;9.150;2023-08-06T05:28:26;4.63;;;1.27;;
773;SDS011;370;48.810;9.150;2023-08-06T05:30:53;1.23;;;1.02;;
773;SDS011;370;48.810;9.150;2023-08-06T05:33:19;1.90;;;1.07;;
773;SDS011;370;48.810;9.150;2023-08-06T05:35:46;1.23;;;1.20;;
773;SDS011;370;48.810;9.150;2023-08-06T05:38:16;2.35;;;1.30;;
773;SDS011;370;48.810;9.150;2023-08-06T05:40:43;2.43;;;1.57;;
773;SDS011;370;48.810;9.150;2023-08-06T05:43:10;3.47;;;1.55;;
773;SDS011;370;48.810;9.150;2023-08-06T05:45:36;3.63;;;1.23;;
773;SDS011;370;48.810;9.150;2023-08-06T05:48:03;2.23;;;1.20;;
773;SDS011;370;48.810;9.150;2023-08-06T05:50:30;2.30;;;1.00;;
773;SDS011;370;48.810;9.150;2023-08-06T05:52:57;5.13;;;0.90;;
773;SDS011;370;48.810;9.150;2023-08-06T05:55:25;0.83;;;0.80;;
773;SDS011;370;48.810;9.150;2023-08-06T05:57:52;2.65;;;0.70;;
773;SDS011;370;48.810;9.150;2023-08-06T06:00:18;1.10;;;0.90;;
773;SDS011;370;48.810;9.150;2023-08-06T06:02:46;1.00;;;0.90;;
773;SDS011;370;48.810;9.150;2023-08-06T06:05:13;0.73;;;0.63;;
773;SDS011;370;48.810;9.150;2023-08-06T06:07:40;0.75;;;0.68;;
773;SDS011;370;48.810;9.150;2023-08-06T06:10:07;2.70;;;1.00;;
773;SDS011;370;48.810;9.150;2023-08-06T06:12:37;3.50;;;0.73;;
773;SDS011;370;48.810;9.150;2023-08-06T06:15:05;1.42;;;0.80;;
773;SDS011;370;48.810;9.150;2023-08-06T06:17:32;0.90;;;0.68;;
773;SDS011;370;48.810;9.150;2023-08-06T06:19:59;1.50;;;0.80;;
773;SDS011;370;48.810;9.150;2023-08-06T06:22:25;0.60;;;0.60;;
773;SDS011;370;48.810;9.150;2023-08-06T06:24:52;2.15;;;0.90;;
773;SDS011;370;48.810;9.150;2023-08-06T06:27:19;0.70;;;0.65;;
773;SDS011;370;48.810;9.150;2023-08-06T06:29:47;2.35;;;0.77;;
773;SDS011;370;48.810;9.150;2023-08-06T06:32:14;0.65;;;0.57;;
773;SDS011;370;48.810;9.150;2023-08-06T06:34:40;0.70;;;0.65;;
773;SDS011;370;48.810;9.150;2023-08-06T06:37:07;0.82;;;0.73;;
773;SDS011;370;48.810;9.150;2023-08-06T06:39:34;0.73;;;0.70;;
773;SDS011;370;48.810;9.150;2023-08-06T06:42:01;0.67;;;0.63;;
773;SDS011;370;48.810;9.150;2023-08-06T06:44:27;1.60;;;1.02;;
773;SDS011;370;48.810;9.150;2023-08-06T06:46:56;0.70;;;0.60;;
773;SDS011;370;48.810;9.150;2023-08-06T06:49:22;2.10;;;0.87;;
773;SDS011;370;48.810;9.150;2023-08-06T06:51:49;1.47;;;0.67;;
773;SDS011;370;48.810;9.150;2023-08-06T06:54:16;1.10;;;0.83;;
773;SDS011;370;48.810;9.150;2023-08-06T06:56:43;0.70;;;0.60;;
773;SDS011;370;48.810;9.150;2023-08-06T06:59:10;0.60;;;0.60;;
773;SDS011;370;48.810;9.150;2023-08-06T07:01:37;1.13;;;0.60;;
773;SDS011;370;48.810;9.150;2023-08-06T07:04:05;0.80;;;0.73;;
773;SDS011;370;48.810;9.150;2023-08-06T07:06:32;0.70;;;0.60;;
773;SDS011;370;48.810;9.150;2023-08-06T07:08:59;6.73;;;0.93;;
773;SDS011;370;48.810;9.150;2023-08-06T07:11:25;1.00;;;0.90;;
773;SDS011;370;48.810;9.150;2023-08-06T07:13:55;0.80;;;0.60;;
773;SDS011;370;48.810;9.150;2023-08-06T07:16:23;1.73;;;0.70;;
773;SDS011;370;48.810;9.150;2023-08-06T07:18:50;0.70;;;0.60;;
773;SDS011;370;48.810;9.150;2023-08-06T07:21:19;1.00;;;0.80;;
773;SDS011;370;48.810;9.150;2023-08-06T07:23:46;0.90;;;0.60;;
773;SDS011;370;48.810;9.150;2023-08-06T07:26:22;0.80;;;0.70;;
773;SDS011;370;48.810;9.150;2023-08-06T07:28:49;0.70;;;0.60;;
773;SDS011;370;48.810;9.150;2023-08-06T07:31:15;0.63;;;0.60;;
773;SDS011;370;48.810;9.150;2023-08-06T07:33:42;0.63;;;0.60;;
773;SDS011;370;48.810;9.150;2023-08-06T07:36:11;0.80;;;0.50;;
773;SDS011;370;48.810;9.150;2023-08-06T07:38:40;0.63;;;0.60;;
773;SDS011;370;48.810;9.150;2023-08-06T07:41:07;5.60;;;0.90;;
773;SDS011;370;48.810;9.150;2023-08-06T07:43:34;0.60;;;0.50;;
773;SDS011;370;48.810;9.150;2023-08-06T07:46:01;1.07;;;0.60;;
773;SDS011;370;48.810;9.150;2023-08-06T07:48:28;1.43;;;0.60;;
773;SDS011;370;48.810;9.150;2023-08-06T07:50:56;1.77;;;0.67;;
773;SDS011;370;48.810;9.150;2023-08-06T07:53:23;0.83;;;0.73;;
773;SDS011;370;48.810;9.150;2023-08-06T07:55:55;1.33;;;0.90;;
773;SDS011;370;48.810;9.150;2023-08-06T07:58:23;0.90;;;0.60;;
773;SDS011;370;48.810;9.150;2023-08-06T08:00:50;1.70;;;0.60;;
773;SDS011;370;48.810;9.150;2023-08-06T08:03:17;0.90;;;0.90;;
773;SDS011;370;48.810;9.150;2023-08-06T08:05:44;0.83;;;0.70;;
773;SDS011;370;48.810;9.150;2023-08-06T08:08:11;0.70;;;0.60;;
773;SDS011;370;48.810;9.150;2023-08-06T08:10:38;0.87;;;0.63;;
773;SDS011;370;48.810;9.150;2023-08-06T08:13:06;0.60;;;0.50;;
773;SDS011;370;48.810;9.150;2023-08-06T08:15:34;0.60;;;0.50;;
773;SDS011;370;48.810;9.150;2023-08-06T08:18:01;0.60;;;0.50;;
773;SDS011;370;48.810;9.150;2023-08-06T08:20:28;0.57;;;0.53;;
773;SDS011;370;48.810;9.150;2023-08-06T08:22:57;1.80;;;0.60;;
773;SDS011;370;48.810;9.150;2023-08-06T08:25:25;0.63;;;0.53;;
773;SDS011;370;48.810;9.150;2023-08-06T08:27:52;1.67;;;0.60;;
773;SDS011;370;48.810;9.150;2023-08-06T08:30:20;0.70;;;0.70;;
773;SDS011;370;48.810;9.150;2023-08-06T08:32:47;0.70;;;0.60;;
773;SDS011;370;48.810;9.150;2023-08-06T08:35:14;0.60;;;0.50;;
773;SDS011;370;48.810;9.150;2023-08-06T08:37:41;0.77;;;0.67;;
773;SDS011;370;48.810;9.150;2023-08-06T08:40:08;0.70;;;0.60;;
773;SDS011;370;48.810;9.150;2023-08-06T08:42:35;1.23;;;0.60;;
773;SDS011;370;48.810;9.150;2023-08-06T08:45:03;0.60;;;0.50;;
773;SDS011;370;48.810;9.150;2023-08-06T08:47:34;1.03;;;0.90;;
773;SDS011;370;48.810;9.150;2023-08-06T08:50:02;0.70;;;0.60;;
773;SDS011;370;48.810;9.150;2023-08-06T08:52:31;0.60;;;0.50;;
773;SDS011;370;48.810;9.150;2023-08-06T08:54:59;0.60;;;0.50;;
773;SDS011;370;48.810;9.150;2023-08-06T08:57:28;0.63;;;0.57;;
773;SDS011;370;48.810;9.150;2023-08-06T08:59:55;0.60;;;0.50;;
773;SDS011;370;48.810;9.150;2023-08-06T09:02:25;0.60;;;0.50;;
773;SDS011;370;48.810;9.150;2023-08-06T09:04:56;0.80;;;0.60;;
773;SDS011;370;48.810;9.150;2023-08-06T09:07:24;0.60;;;0.50;;
773;SDS011;370;48.810;9.150;2023-08-06T09:09:52;0.67;;;0.57;;
773;SDS011;370;48.810;9.150;2023-08-06T09:12:20;0.60;;;0.50;;
773;SDS011;370;48.810;9.150;2023-08-06T09:14:47;0.47;;;0.43;;
773;SDS011;370;48.810;9.150;2023-08-06T09:17:14;0.60;;;0.50;;
773;SDS011;370;48.810;9.150;2023-08-06T09:19:44;0.60;;;0.50;;
773;SDS011;370;48.810;9.150;2023-08-06T09:22:14;0.60;;;0.50;;
773;SDS011;370;48.810;9.150;2023-08-06T09:24:41;0.60;;;0.50;;
773;SDS011;370;48.810;9.150;2023-08-06T09:27:10;0.70;;;0.60;;
773;SDS011;370;48.810;9.150;2023-08-06T09:29:39;0.80;;;0.70;;
773;SDS011;370;48.810;9.150;2023-08-06T09:32:07;0.40;;;0.40;;
773;SDS011;370;48.810;9.150;2023-08-06T09:34:34;0.60;;;0.50;;
773;SDS011;370;48.810;9.150;2023-08-06T09:37:01;0.60;;;0.50;;
773;SDS011;370;48.810;9.150;2023-08-06T09:39:31;0.60;;;0.50;;
773;SDS011;370;48.810;9.150;2023-08-06T09:41:58;0.60;;;0.50;;
773;SDS011;370;48.810;9.150;2023-08-06T09:44:28;0.70;;;0.60;;
773;SDS011;370;48.810;9.150;2023-08-06T09:46:57;0.50;;;0.50;;
773;SDS011;370;48.810;9.150;2023-08-06T09:49:25;0.60;;;0.50;;
773;SDS011;370;48.810;9.150;2023-08-06T09:51:53;0.40;;;0.40;;
773;SDS011;370;48.810;9.150;2023-08-06T09:54:23;0.60;;;0.50;;
773;SDS011;370;48.810;9.150;2023-08-06T09:56:53;0.60;;;0.50;;
773;SDS011;370;48.810;9.150;2023-08-06T09:59:20;0.73;;;0.50;;
773;SDS011;370;48.810;9.150;2023-08-06T10:01:47;0.60;;;0.50;;
773;SDS011;370;48.810;9.150;2023-08-06T10:04:14;0.93;;;0.50;;
773;SDS011;370;48.810;9.150;2023-08-06T10:06:43;0.60;;;0.50;;
773;SDS011;370;48.810;9.150;2023-08-06T10:09:13;0.60;;;0.50;;
773;SDS011;370;48.810;9.150;2023-08-06T10:11:40;0.60;;;0.50;;
773;SDS011;370;48.810;9.150;2023-08-06T10:14:10;0.60;;;0.50;;
773;SDS011;370;48.810;9.150;2023-08-06T10:16:39;0.50;;;0.50;;
773;SDS011;370;48.810;9.150;2023-08-06T10:19:07;0.63;;;0.53;;
773;SDS011;370;48.810;9.150;2023-08-06T10:21:37;0.60;;;0.50;;
773;SDS011;370;48.810;9.150;2023-08-06T10:24:06;0.60;;;0.57;;
773;SDS011;370;48.810;9.150;2023-08-06T10:26:35;0.80;;;0.60;;
773;SDS011;370;48.810;9.150;2023-08-06T10:32:04;0.60;;;0.50;;
773;SDS011;370;48.810;9.150;2023-08-06T10:37:22;0.60;;;0.50;;
773;SDS011;370;48.810;9.150;2023-08-06T10:39:50;0.60;;;0.50;;
773;SDS011;370;48.810;9.150;2023-08-06T10:42:20;0.60;;;0.50;;
773;SDS011;370;48.810;9.150;2023-08-06T10:47:44;3.73;;;0.63;;
773;SDS011;370;48.810;9.150;2023-08-06T10:50:13;0.70;;;0.60;;
773;SDS011;370;48.810;9.150;2023-08-06T10:52:41;0.70;;;0.60;;
773;SDS011;370;48.810;9.150;2023-08-06T10:55:09;0.70;;;0.60;;
773;SDS011;370;48.810;9.150;2023-08-06T10:57:36;0.60;;;0.50;;
773;SDS011;370;48.810;9.150;2023-08-06T11:00:03;1.13;;;0.60;;
773;SDS011;370;48.810;9.150;2023-08-06T11:02:34;0.60;;;0.50;;
773;SDS011;370;48.810;9.150;2023-08-06T11:05:05;0.60;;;0.50;;
773;SDS011;370;48.810;9.150;2023-08-06T11:07:32;0.83;;;0.77;;
773;SDS011;370;48.810;9.150;2023-08-06T11:10:03;0.80;;;0.60;;
773;SDS011;370;48.810;9.150;2023-08-06T11:12:31;3.17;;;0.60;;
773;SDS011;370;48.810;9.150;2023-08-06T11:14:58;0.63;;;0.60;;
773;SDS011;370;48.810;9.150;2023-08-06T11:17:25;0.70;;;0.60;;
773;SDS011;370;48.810;9.150;2023-08-06T11:19:55;0.60;;;0.57;;
773;SDS011;370;48.810;9.150;2023-08-06T11:22:24;1.10;;;0.70;;
773;SDS011;370;48.810;9.150;2023-08-06T11:24:52;0.60;;;0.50;;
773;SDS011;370;48.810;9.150;2023-08-06T11:27:20;0.73;;;0.63;;
773;SDS011;370;48.810;9.150;2023-08-06T11:29:47;0.73;;;0.63;;
773;SDS011;370;48.810;9.150;2023-08-06T11:32:13;0.77;;;0.70;;
773;SDS011;370;48.810;9.150;2023-08-06T11:34:40;1.50;;;0.87;;
773;SDS011;370;48.810;9.150;2023-08-06T11:37:08;1.13;;;0.80;;
773;SDS011;370;48.810;9.150;2023-08-06T11:39:36;1.53;;;0.60;;
773;SDS011;370;48.810;9.150;2023-08-06T11:42:04;0.80;;;0.70;;
773;SDS011;370;48.810;9.150;2023-08-06T11:44:33;0.80;;;0.70;;
773;SDS011;370;48.810;9.150;2023-08-06T11:47:02;0.83;;;0.77;;
773;SDS011;370;48.810;9.150;2023-08-06T11:49:37;1.43;;;0.83;;
773;SDS011;370;48.810;9.150;2023-08-06T11:52:10;1.77;;;1.00;;
773;SDS011;370;48.810;9.150;2023-08-06T11:54:39;1.03;;;0.83;;
773;SDS011;370;48.810;9.150;2023-08-06T11:57:06;0.90;;;0.80;;
773;SDS011;370;48.810;9.150;2023-08-06T11:59:33;4.87;;;1.20;;
773;SDS011;370;48.810;9.150;2023-08-06T12:02:00;0.73;;;0.70;;
773;SDS011;370;48.810;9.150;2023-08-06T12:04:27;1.67;;;1.00;;
773;SDS011;370;48.810;9.150;2023-08-06T12:06:54;1.40;;;1.30;;
773;SDS011;370;48.810;9.150;2023-08-06T12:09:22;0.97;;;0.83;;
773;SDS011;370;48.810;9.150;2023-08-06T12:11:49;0.97;;;0.80;;
773;SDS011;370;48.810;9.150;2023-08-06T12:14:16;0.80;;;0.80;;
773;SDS011;370;48.810;9.150;2023-08-06T12:16:43;1.33;;;0.90;;
773;SDS011;370;48.810;9.150;2023-08-06T12:19:09;0.90;;;0.80;;
773;SDS011;370;48.810;9.150;2023-08-06T12:21:36;1.87;;;0.83;;
773;SDS011;370;48.810;9.150;2023-08-06T12:24:03;2.03;;;0.80;;
773;SDS011;370;48.810;9.150;2023-08-06T12:26:32;2.20;;;0.80;;
773;SDS011;370;48.810;9.150;2023-08-06T12:28:59;6.20;;;1.27;;
773;SDS011;370;48.810;9.150;2023-08-06T12:31:26;1.00;;;0.97;;
773;SDS011;370;48.810;9.150;2023-08-06T12:33:53;0.80;;;0.80;;
773;SDS011;370;48.810;9.150;2023-08-06T12:36:19;4.57;;;1.00;;
773;SDS011;370;48.810;9.150;2023-08-06T12:38:46;1.50;;;1.00;;
773;SDS011;370;48.810;9.150;2023-08-06T12:41:13;5.80;;;1.13;;
773;SDS011;370;48.810;9.150;2023-08-06T12:43:41;2.10;;;1.43;;
773;SDS011;370;48.810;9.150;2023-08-06T12:46:08;4.57;;;1.10;;
773;SDS011;370;48.810;9.150;2023-08-06T12:48:35;1.83;;;1.30;;
773;SDS011;370;48.810;9.150;2023-08-06T12:51:02;0.90;;;0.90;;
773;SDS011;370;48.810;9.150;2023-08-06T12:53:28;1.10;;;1.00;;
773;SDS011;370;48.810;9.150;2023-08-06T12:55:55;0.90;;;0.80;;
773;SDS011;370;48.810;9.150;2023-08-06T12:58:22;1.00;;;0.90;;
773;SDS011;370;48.810;9.150;2023-08-06T13:00:50;0.90;;;0.80;;
773;SDS011;370;48.810;9.150;2023-08-06T13:03:17;0.90;;;0.80;;
773;SDS011;370;48.810;9.150;2023-08-06T13:05:43;1.60;;;0.90;;
773;SDS011;370;48.810;9.150;2023-08-06T13:08:10;1.10;;;0.70;;
773;SDS011;370;48.810;9.150;2023-08-06T13:10:37;5.10;;;1.40;;
773;SDS011;370;48.810;9.150;2023-08-06T13:13:04;2.13;;;0.90;;
773;SDS011;370;48.810;9.150;2023-08-06T13:15:31;1.20;;;1.00;;
773;SDS011;370;48.810;9.150;2023-08-06T13:18:00;0.90;;;0.80;;
773;SDS011;370;48.810;9.150;2023-08-06T13:20:29;0.70;;;0.60;;
773;SDS011;370;48.810;9.150;2023-08-06T13:22:57;0.80;;;0.70;;
773;SDS011;370;48.810;9.150;2023-08-06T13:25:26;2.73;;;0.70;;
773;SDS011;370;48.810;9.150;2023-08-06T13:27:53;0.93;;;0.80;;
773;SDS011;370;48.810;9.150;2023-08-06T13:30:20;0.90;;;0.80;;
773;SDS011;370;48.810;9.150;2023-08-06T13:32:48;2.10;;;0.90;;
773;SDS011;370;48.810;9.150;2023-08-06T13:35:16;0.97;;;0.87;;
773;SDS011;370;48.810;9.150;2023-08-06T13:37:43;0.87;;;0.77;;
773;SDS011;370;48.810;9.150;2023-08-06T13:40:10;0.83;;;0.80;;
773;SDS011;370;48.810;9.150;2023-08-06T13:42:37;0.90;;;0.80;;
773;SDS011;370;48.810;9.150;2023-08-06T13:45:04;0.97;;;0.57;;
773;SDS011;370;48.810;9.150;2023-08-06T13:47:32;9.50;;;0.80;;
773;SDS011;370;48.810;9.150;2023-08-06T13:49:59;0.90;;;0.80;;
773;SDS011;370;48.810;9.150;2023-08-06T13:52:27;0.80;;;0.70;;
773;SDS011;370;48.810;9.150;2023-08-06T13:54:54;0.70;;;0.60;;
773;SDS011;370;48.810;9.150;2023-08-06T13:57:20;0.57;;;0.53;;
773;SDS011;370;48.810;9.150;2023-08-06T13:59:47;0.67;;;0.63;;
773;SDS011;370;48.810;9.150;2023-08-06T14:02:14;1.10;;;0.73;;
773;SDS011;370;48.810;9.150;2023-08-06T14:04:41;0.87;;;0.80;;
773;SDS011;370;48.810;9.150;2023-08-06T14:07:07;0.73;;;0.70;;
773;SDS011;370;48.810;9.150;2023-08-06T14:09:35;0.83;;;0.60;;
773;SDS011;370;48.810;9.150;2023-08-06T14:12:02;0.70;;;0.60;;
773;SDS011;370;48.810;9.150;2023-08-06T14:14:30;0.70;;;0.60;;
773;SDS011;370;48.810;9.150;2023-08-06T14:16:57;1.37;;;0.93;;
773;SDS011;370;48.810;9.150;2023-08-06T14:19:23;0.80;;;0.70;;
773;SDS011;370;48.810;9.150;2023-08-06T14:21:50;0.70;;;0.60;;
773;SDS011;370;48.810;9.150;2023-08-06T14:24:17;0.80;;;0.70;;
773;SDS011;370;48.810;9.150;2023-08-06T14:26:45;1.10;;;0.93;;
773;SDS011;370;48.810;9.150;2023-08-06T14:29:12;1.37;;;1.00;;
773;SDS011;370;48.810;9.150;2023-08-06T14:31:39;1.10;;;1.00;;
773;SDS011;370;48.810;9.150;2023-08-06T14:34:06;0.83;;;0.80;;
773;SDS011;370;48.810;9.150;2023-08-06T14:36:33;0.70;;;0.60;;
773;SDS011;370;48.810;9.150;2023-08-06T14:38:59;1.00;;;0.90;;
773;SDS011;370;48.810;9.150;2023-08-06T14:41:26;1.33;;;0.70;;
773;SDS011;370;48.810;9.150;2023-08-06T14:43:54;1.33;;;0.90;;
773;SDS011;370;48.810;9.150;2023-08-06T14:46:21;1.00;;;0.90;;
773;SDS011;370;48.810;9.150;2023-08-06T14:48:48;0.80;;;0.70;;
773;SDS011;370;48.810;9.150;2023-08-06T14:51:15;0.70;;;0.60;;
773;SDS011;370;48.810;9.150;2023-08-06T14:53:44;0.73;;;0.67;;
773;SDS011;370;48.810;9.150;2023-08-06T14:56:10;1.00;;;1.00;;
773;SDS011;370;48.810;9.150;2023-08-06T14:58:37;0.90;;;0.80;;
773;SDS011;370;48.810;9.150;2023-08-06T15:01:05;0.70;;;0.70;;
773;SDS011;370;48.810;9.150;2023-08-06T15:03:32;0.60;;;0.50;;
773;SDS011;370;48.810;9.150;2023-08-06T15:05:59;0.70;;;0.60;;
773;SDS011;370;48.810;9.150;2023-08-06T15:08:25;0.90;;;0.80;;
773;SDS011;370;48.810;9.150;2023-08-06T15:10:52;0.70;;;0.60;;
773;SDS011;370;48.810;9.150;2023-08-06T15:13:19;0.80;;;0.70;;
773;SDS011;370;48.810;9.150;2023-08-06T15:15:47;0.73;;;0.70;;
773;SDS011;370;48.810;9.150;2023-08-06T15:18:15;0.87;;;0.83;;
773;SDS011;370;48.810;9.150;2023-08-06T15:20:42;0.90;;;0.80;;
773;SDS011;370;48.810;9.150;2023-08-06T15:23:09;1.63;;;0.97;;
773;SDS011;370;48.810;9.150;2023-08-06T15:25:35;0.77;;;0.67;;
773;SDS011;370;48.810;9.150;2023-08-06T15:28:02;0.87;;;0.77;;
773;SDS011;370;48.810;9.150;2023-08-06T15:30:30;0.83;;;0.77;;
773;SDS011;370;48.810;9.150;2023-08-06T15:32:57;0.80;;;0.70;;
773;SDS011;370;48.810;9.150;2023-08-06T15:35:25;1.27;;;0.83;;
773;SDS011;370;48.810;9.150;2023-08-06T15:37:52;0.87;;;0.80;;
773;SDS011;370;48.810;9.150;2023-08-06T15:40:19;6.67;;;0.90;;
773;SDS011;370;48.810;9.150;2023-08-06T15:42:46;3.40;;;0.97;;
773;SDS011;370;48.810;9.150;2023-08-06T15:45:13;0.90;;;0.80;;
773;SDS011;370;48.810;9.150;2023-08-06T15:47:39;3.50;;;0.90;;
773;SDS011;370;48.810;9.150;2023-08-06T15:50:06;0.80;;;0.70;;
773;SDS011;370;48.810;9.150;2023-08-06T15:52:35;0.70;;;0.60;;
773;SDS011;370;48.810;9.150;2023-08-06T15:55:02;0.80;;;0.70;;